Time;durP1;ratioP1;P1;durP2;ratioP2;P2;SDS_P1;SDS_P2;PMS_P1;PMS_P2;Temp;Humidity;BMP_temperature;BMP_pressure;BME280_temperature;BME280_humidity;BME280_pressure;Samples;Min_cycle;Max_cycle;Signal;HPM_P1;HPM_P2
2021/12/08 00:02:17;;;;;;;1.30;0.90;;;;;;;;;;5036024;28;20656;-70
2021/12/08 00:04:45;;;;;;;1.20;1.03;;;;;;;;;;5034929;28;20663;-71
2021/12/08 00:07:12;;;;;;;3.13;1.53;;;;;;;;;;5037031;28;20219;-71
2021/12/08 00:09:59;;;;;;;1.07;0.80;;;;;;;;;;5039002;28;20212;-72
2021/12/08 00:15:13;;;;;;;1.43;0.57;;;;;;;;;;5036429;28;20221;-71
2021/12/08 00:17:41;;;;;;;0.67;0.60;;;;;;;;;;5034657;28;20210;-70
2021/12/08 00:20:09;;;;;;;0.87;0.87;;;;;;;;;;5034760;28;20249;-72
2021/12/08 00:22:36;;;;;;;0.90;0.80;;;;;;;;;;5034673;28;20584;-72
2021/12/08 00:25:04;;;;;;;0.17;0.17;;;;;;;;;;5036713;28;20216;-70
2021/12/08 00:27:33;;;;;;;0.70;0.70;;;;;;;;;;5038775;28;20198;-73
2021/12/08 00:30:00;;;;;;;0.40;0.27;;;;;;;;;;5033059;28;20243;-70
2021/12/08 00:32:30;;;;;;;2.43;1.20;;;;;;;;;;5031488;28;20214;-70
2021/12/08 00:34:57;;;;;;;0.13;0.13;;;;;;;;;;5028539;28;20686;-72
2021/12/08 00:37:26;;;;;;;1.03;0.97;;;;;;;;;;5026170;28;20199;-71
2021/12/08 00:39:54;;;;;;;0.73;0.73;;;;;;;;;;5028104;28;20582;-71
2021/12/08 00:42:21;;;;;;;2.73;1.93;;;;;;;;;;5035028;28;20209;-72
2021/12/08 00:44:50;;;;;;;2.40;1.57;;;;;;;;;;5037788;28;20210;-71
2021/12/08 00:47:18;;;;;;;1.07;1.00;;;;;;;;;;5039602;28;20212;-70
2021/12/08 00:49:47;;;;;;;1.27;1.17;;;;;;;;;;5034853;28;20566;-70
2021/12/08 00:52:15;;;;;;;0.90;0.83;;;;;;;;;;5041404;28;20231;-71
2021/12/08 00:54:43;;;;;;;1.10;0.80;;;;;;;;;;5035560;28;20733;-70
2021/12/08 00:57:10;;;;;;;0.63;0.23;;;;;;;;;;5037607;28;20208;-71
2021/12/08 00:59:38;;;;;;;0.23;0.23;;;;;;;;;;5029413;28;20232;-71
2021/12/08 01:02:07;;;;;;;0.30;0.30;;;;;;;;;;5026988;28;20207;-71
2021/12/08 01:04:35;;;;;;;0.93;0.87;;;;;;;;;;5026909;28;20211;-73
2021/12/08 01:07:03;;;;;;;1.00;0.93;;;;;;;;;;5029824;28;20303;-73
2021/12/08 01:09:31;;;;;;;0.23;0.23;;;;;;;;;;5030120;28;20617;-73
2021/12/08 01:12:01;;;;;;;0.20;0.10;;;;;;;;;;5030124;28;20204;-73
2021/12/08 01:14:29;;;;;;;0.30;0.30;;;;;;;;;;5031080;28;20307;-71
2021/12/08 01:16:57;;;;;;;0.93;0.90;;;;;;;;;;5028408;28;20209;-73
2021/12/08 01:19:26;;;;;;;1.03;0.57;;;;;;;;;;5027948;28;20224;-73
2021/12/08 01:21:54;;;;;;;0.93;0.93;;;;;;;;;;5035687;28;20214;-72
2021/12/08 01:24:21;;;;;;;1.20;0.90;;;;;;;;;;5037165;28;20208;-71
2021/12/08 01:26:49;;;;;;;0.37;0.30;;;;;;;;;;5033455;28;20231;-73
2021/12/08 01:29:16;;;;;;;2.50;1.43;;;;;;;;;;5031771;28;20208;-71
2021/12/08 01:31:44;;;;;;;0.40;0.40;;;;;;;;;;5036724;28;20200;-71
2021/12/08 01:34:13;;;;;;;0.10;0.10;;;;;;;;;;5034598;28;20237;-71
2021/12/08 01:36:42;;;;;;;0.13;0.13;;;;;;;;;;5034625;28;20219;-71
2021/12/08 01:39:10;;;;;;;0.00;0.00;;;;;;;;;;5038764;28;20237;-70
2021/12/08 01:41:37;;;;;;;0.30;0.20;;;;;;;;;;5036772;28;20208;-72
2021/12/08 01:46:50;;;;;;;0.37;0.20;;;;;;;;;;5037997;28;20288;-71
2021/12/08 01:49:18;;;;;;;0.10;0.10;;;;;;;;;;5038843;28;20241;-72
2021/12/08 01:51:47;;;;;;;0.00;0.00;;;;;;;;;;5040795;28;20291;-71
2021/12/08 01:54:14;;;;;;;0.00;0.00;;;;;;;;;;5042872;28;20219;-71
2021/12/08 01:56:42;;;;;;;0.00;0.00;;;;;;;;;;5042295;28;20204;-71
2021/12/08 01:59:10;;;;;;;0.00;0.00;;;;;;;;;;5041581;28;20588;-71
2021/12/08 02:01:39;;;;;;;0.00;0.00;;;;;;;;;;5045468;28;20203;-71
2021/12/08 02:04:06;;;;;;;0.30;0.30;;;;;;;;;;5041888;28;20216;-71
2021/12/08 02:06:35;;;;;;;0.17;0.17;;;;;;;;;;5042865;28;20218;-70
2021/12/08 02:09:05;;;;;;;0.00;0.00;;;;;;;;;;5039688;28;20210;-71
2021/12/08 02:11:32;;;;;;;0.30;0.30;;;;;;;;;;5037840;28;20208;-71
2021/12/08 02:14:01;;;;;;;0.30;0.27;;;;;;;;;;5037219;28;20208;-71
2021/12/08 02:16:29;;;;;;;0.03;0.03;;;;;;;;;;5037481;28;20199;-72
2021/12/08 02:18:57;;;;;;;1.23;0.60;;;;;;;;;;5036785;28;20214;-70
2021/12/08 02:21:28;;;;;;;0.70;0.70;;;;;;;;;;5039611;28;20199;-71
2021/12/08 02:23:57;;;;;;;0.47;0.47;;;;;;;;;;5038232;28;20208;-70
2021/12/08 02:26:24;;;;;;;1.03;0.37;;;;;;;;;;5031562;28;20547;-71
2021/12/08 02:28:52;;;;;;;2.20;0.60;;;;;;;;;;5032619;28;20302;-72
2021/12/08 02:31:30;;;;;;;1.63;0.27;;;;;;;;;;5030732;28;21629;-71
2021/12/08 02:47:53;;;;;;;0.40;0.40;;;;;;;;;;5032850;28;20210;-70
2021/12/08 02:50:21;;;;;;;0.63;0.40;;;;;;;;;;5031592;28;20222;-71
2021/12/08 02:52:50;;;;;;;0.33;0.33;;;;;;;;;;5033417;28;20215;-71
2021/12/08 02:55:18;;;;;;;0.27;0.27;;;;;;;;;;5030132;28;20636;-72
2021/12/08 02:57:45;;;;;;;0.57;0.30;;;;;;;;;;5032002;28;20218;-71
2021/12/08 03:00:15;;;;;;;0.53;0.13;;;;;;;;;;5031179;28;20231;-73
2021/12/08 03:02:42;;;;;;;0.07;0.07;;;;;;;;;;5033984;28;20212;-72
2021/12/08 03:05:09;;;;;;;1.57;1.50;;;;;;;;;;5035470;28;20941;-70
2021/12/08 03:07:37;;;;;;;0.43;0.43;;;;;;;;;;5033334;28;20200;-71
2021/12/08 03:10:09;;;;;;;0.33;0.33;;;;;;;;;;5030693;28;20200;-71
2021/12/08 03:12:36;;;;;;;0.37;0.37;;;;;;;;;;5033075;28;20199;-71
2021/12/08 03:15:04;;;;;;;3.57;0.77;;;;;;;;;;5030948;28;20484;-71
2021/12/08 03:17:33;;;;;;;6.90;0.60;;;;;;;;;;5031621;28;20208;-72
2021/12/08 03:20:00;;;;;;;1.23;0.90;;;;;;;;;;5031217;28;20323;-71
2021/12/08 03:22:30;;;;;;;2.37;0.93;;;;;;;;;;5034130;28;20209;-70
2021/12/08 03:25:00;;;;;;;0.67;0.60;;;;;;;;;;5035396;28;20211;-71
2021/12/08 03:27:35;;;;;;;1.30;0.80;;;;;;;;;;5036453;28;20211;-71
2021/12/08 03:30:13;;;;;;;2.77;1.07;;;;;;;;;;5032764;28;20213;-72
2021/12/08 03:32:41;;;;;;;0.60;0.53;;;;;;;;;;5032522;28;20206;-72
2021/12/08 03:35:10;;;;;;;0.57;0.47;;;;;;;;;;5033698;28;20287;-71
2021/12/08 03:37:39;;;;;;;1.83;1.37;;;;;;;;;;5034066;28;20207;-71
2021/12/08 03:40:10;;;;;;;0.47;0.47;;;;;;;;;;5031907;28;20789;-71
2021/12/08 03:42:40;;;;;;;0.20;0.20;;;;;;;;;;5031365;28;20245;-70
2021/12/08 03:45:10;;;;;;;0.40;0.40;;;;;;;;;;5029853;28;20212;-71
2021/12/08 03:47:39;;;;;;;1.93;0.57;;;;;;;;;;5029940;28;20688;-71
2021/12/08 03:50:08;;;;;;;0.70;0.57;;;;;;;;;;5032459;28;20196;-70
2021/12/08 03:52:37;;;;;;;0.87;0.67;;;;;;;;;;5028367;28;20212;-71
2021/12/08 03:55:07;;;;;;;0.77;0.77;;;;;;;;;;5026966;28;20285;-71
2021/12/08 03:57:35;;;;;;;0.93;0.93;;;;;;;;;;5033162;28;20388;-69
2021/12/08 04:00:06;;;;;;;0.20;0.20;;;;;;;;;;5032166;28;20282;-70
2021/12/08 04:02:34;;;;;;;0.40;0.40;;;;;;;;;;5031543;28;20199;-72
2021/12/08 04:05:03;;;;;;;0.57;0.57;;;;;;;;;;5031977;28;20204;-71
2021/12/08 04:07:31;;;;;;;0.00;0.00;;;;;;;;;;5030755;28;20220;-70
2021/12/08 04:09:59;;;;;;;0.23;0.23;;;;;;;;;;5031651;28;20207;-70
2021/12/08 04:12:27;;;;;;;6.60;1.10;;;;;;;;;;5027834;28;20200;-71
2021/12/08 04:14:57;;;;;;;1.30;0.33;;;;;;;;;;5028355;28;20210;-72
2021/12/08 04:17:27;;;;;;;0.47;0.40;;;;;;;;;;5029212;28;20230;-71
2021/12/08 04:19:56;;;;;;;1.00;0.93;;;;;;;;;;5033357;28;20235;-70
2021/12/08 04:22:26;;;;;;;0.10;0.00;;;;;;;;;;5029666;28;20213;-71
2021/12/08 04:24:54;;;;;;;2.47;0.40;;;;;;;;;;5027594;28;20199;-71
2021/12/08 04:27:23;;;;;;;2.57;0.90;;;;;;;;;;5028744;28;20238;-71
2021/12/08 04:29:51;;;;;;;3.03;0.77;;;;;;;;;;5030861;28;20204;-71
2021/12/08 04:32:20;;;;;;;0.53;0.50;;;;;;;;;;5027917;28;21629;-70
2021/12/08 04:34:50;;;;;;;0.50;0.00;;;;;;;;;;5025590;28;20203;-70
2021/12/08 04:37:23;;;;;;;0.40;0.40;;;;;;;;;;5032340;28;20209;-70
2021/12/08 04:40:00;;;;;;;0.47;0.33;;;;;;;;;;5032299;28;20211;-70
2021/12/08 04:42:40;;;;;;;4.07;0.20;;;;;;;;;;5030446;28;20207;-71
2021/12/08 04:45:14;;;;;;;1.33;0.30;;;;;;;;;;5032398;28;20208;-70
2021/12/08 04:48:03;;;;;;;0.60;0.40;;;;;;;;;;5031360;28;21188;-71
2021/12/08 04:50:48;;;;;;;0.83;0.67;;;;;;;;;;5031868;28;21745;-71
2021/12/08 04:53:33;;;;;;;0.07;0.07;;;;;;;;;;5029708;28;20208;-70
2021/12/08 05:01:56;;;;;;;1.20;0.10;;;;;;;;;;5029252;28;20338;-69
2021/12/08 05:04:38;;;;;;;2.20;0.30;;;;;;;;;;5029652;28;20356;-70
2021/12/08 05:07:30;;;;;;;1.37;0.80;;;;;;;;;;5028715;28;20303;-69
2021/12/08 05:09:58;;;;;;;0.13;0.10;;;;;;;;;;5038564;28;20245;-70
2021/12/08 05:12:27;;;;;;;1.10;0.20;;;;;;;;;;5029599;28;20207;-70
2021/12/08 05:14:57;;;;;;;0.83;0.30;;;;;;;;;;5033862;28;20208;-70
2021/12/08 05:17:26;;;;;;;0.03;0.03;;;;;;;;;;5035857;28;20217;-70
2021/12/08 05:19:55;;;;;;;1.20;0.77;;;;;;;;;;5031659;28;20207;-70
2021/12/08 05:22:26;;;;;;;0.37;0.37;;;;;;;;;;5032617;28;20208;-69
2021/12/08 05:24:55;;;;;;;1.13;0.10;;;;;;;;;;5033999;28;21770;-71
2021/12/08 05:27:25;;;;;;;0.20;0.20;;;;;;;;;;5039034;28;20213;-71
2021/12/08 05:29:55;;;;;;;0.00;0.00;;;;;;;;;;5040060;28;20207;-71
2021/12/08 05:32:22;;;;;;;0.00;0.00;;;;;;;;;;5039088;28;20210;-71
2021/12/08 05:34:50;;;;;;;0.50;0.47;;;;;;;;;;5038670;28;20210;-70
2021/12/08 05:37:19;;;;;;;0.47;0.20;;;;;;;;;;5038267;28;20223;-70
2021/12/08 05:39:48;;;;;;;0.10;0.10;;;;;;;;;;5034072;28;20199;-70
2021/12/08 05:42:21;;;;;;;1.67;0.40;;;;;;;;;;5035287;28;20235;-70
2021/12/08 05:44:49;;;;;;;1.43;0.87;;;;;;;;;;5036828;28;20742;-71
2021/12/08 05:47:27;;;;;;;0.30;0.30;;;;;;;;;;5036657;28;20207;-70
2021/12/08 05:49:55;;;;;;;1.63;0.63;;;;;;;;;;5029469;28;20322;-71
2021/12/08 05:52:23;;;;;;;0.30;0.30;;;;;;;;;;5037065;28;20200;-70
2021/12/08 05:54:52;;;;;;;0.30;0.30;;;;;;;;;;5036251;28;20285;-70
2021/12/08 05:57:21;;;;;;;0.47;0.47;;;;;;;;;;5038794;28;20213;-70
2021/12/08 05:59:50;;;;;;;2.57;1.00;;;;;;;;;;5037009;28;20208;-70
2021/12/08 06:02:18;;;;;;;0.93;0.30;;;;;;;;;;5037168;28;20619;-70
2021/12/08 06:04:47;;;;;;;1.87;0.57;;;;;;;;;;5038747;28;20199;-70
2021/12/08 06:07:21;;;;;;;0.13;0.10;;;;;;;;;;5038911;28;21355;-71
2021/12/08 06:09:49;;;;;;;0.00;0.00;;;;;;;;;;5034986;28;20313;-71
2021/12/08 06:12:18;;;;;;;4.53;1.00;;;;;;;;;;5034305;28;20215;-71
2021/12/08 06:14:45;;;;;;;0.27;0.17;;;;;;;;;;5036140;28;20218;-71
2021/12/08 06:17:15;;;;;;;7.10;1.70;;;;;;;;;;5039913;28;20211;-70
2021/12/08 06:19:44;;;;;;;2.30;0.77;;;;;;;;;;5037525;28;20327;-71
2021/12/08 06:22:13;;;;;;;1.53;0.10;;;;;;;;;;5037877;28;20989;-71
2021/12/08 06:24:41;;;;;;;0.20;0.20;;;;;;;;;;5038607;28;20214;-71
2021/12/08 06:27:08;;;;;;;1.70;0.40;;;;;;;;;;5038109;28;20338;-70
2021/12/08 06:29:37;;;;;;;1.27;0.60;;;;;;;;;;5034518;28;20549;-69
2021/12/08 06:32:06;;;;;;;0.47;0.23;;;;;;;;;;5031786;28;20216;-67
2021/12/08 06:34:36;;;;;;;0.10;0.10;;;;;;;;;;5029842;28;20223;-71
2021/12/08 06:37:04;;;;;;;0.10;0.10;;;;;;;;;;5034672;28;20239;-70
2021/12/08 06:39:34;;;;;;;0.60;0.20;;;;;;;;;;5035790;28;20208;-70
2021/12/08 06:42:03;;;;;;;0.10;0.10;;;;;;;;;;5036952;28;20254;-70
2021/12/08 06:44:33;;;;;;;3.30;0.53;;;;;;;;;;5037192;28;20293;-69
2021/12/08 06:47:03;;;;;;;0.33;0.30;;;;;;;;;;5037969;28;20231;-70
2021/12/08 06:49:31;;;;;;;0.53;0.20;;;;;;;;;;5035981;28;20214;-69
2021/12/08 06:52:01;;;;;;;1.70;0.67;;;;;;;;;;5036918;28;20201;-70
2021/12/08 06:54:30;;;;;;;0.30;0.30;;;;;;;;;;5034234;28;20223;-70
2021/12/08 06:56:59;;;;;;;1.70;0.97;;;;;;;;;;5042467;28;20210;-70
2021/12/08 06:59:31;;;;;;;2.00;0.30;;;;;;;;;;5043605;28;20204;-70
2021/12/08 07:02:05;;;;;;;0.43;0.43;;;;;;;;;;5038926;28;20236;-69
2021/12/08 07:04:41;;;;;;;2.10;0.33;;;;;;;;;;5042441;28;20205;-67
2021/12/08 07:07:12;;;;;;;0.43;0.37;;;;;;;;;;5036163;28;20293;-70
2021/12/08 07:09:46;;;;;;;0.30;0.30;;;;;;;;;;5037299;28;20204;-70
2021/12/08 07:12:16;;;;;;;0.00;0.00;;;;;;;;;;5029838;28;20554;-71
2021/12/08 07:14:47;;;;;;;0.27;0.27;;;;;;;;;;5031336;28;20334;-69
2021/12/08 07:17:18;;;;;;;1.00;0.37;;;;;;;;;;5032256;28;20213;-71
2021/12/08 07:19:51;;;;;;;0.33;0.33;;;;;;;;;;5029850;28;20203;-71
2021/12/08 07:22:21;;;;;;;0.10;0.10;;;;;;;;;;5030478;28;20281;-70
2021/12/08 07:24:49;;;;;;;0.37;0.20;;;;;;;;;;5029563;28;20222;-70
2021/12/08 07:27:18;;;;;;;0.30;0.20;;;;;;;;;;5032845;28;20196;-69
2021/12/08 07:29:47;;;;;;;0.77;0.53;;;;;;;;;;5029944;28;20211;-69
2021/12/08 07:32:17;;;;;;;0.00;0.00;;;;;;;;;;5031114;28;20199;-70
2021/12/08 07:34:44;;;;;;;2.03;0.73;;;;;;;;;;5028252;28;21393;-70
2021/12/08 07:37:15;;;;;;;0.00;0.00;;;;;;;;;;5033078;28;20214;-69
2021/12/08 07:39:45;;;;;;;0.50;0.40;;;;;;;;;;5030636;28;20298;-71
2021/12/08 07:42:17;;;;;;;1.47;0.53;;;;;;;;;;5029577;28;20594;-70
2021/12/08 07:44:45;;;;;;;0.00;0.00;;;;;;;;;;5034105;28;20199;-70
2021/12/08 07:47:13;;;;;;;0.10;0.10;;;;;;;;;;5036953;28;20203;-72
2021/12/08 07:49:42;;;;;;;0.20;0.20;;;;;;;;;;5034236;28;20204;-73
2021/12/08 07:52:10;;;;;;;6.13;0.50;;;;;;;;;;5033292;28;20204;-71
2021/12/08 07:54:41;;;;;;;2.17;1.37;;;;;;;;;;5029876;28;20239;-72
2021/12/08 07:57:11;;;;;;;0.87;0.70;;;;;;;;;;5030044;28;20207;-71
2021/12/08 07:59:39;;;;;;;0.00;0.00;;;;;;;;;;5035153;28;21823;-70
2021/12/08 08:02:07;;;;;;;1.67;0.33;;;;;;;;;;5038267;28;20235;-69
2021/12/08 08:04:37;;;;;;;0.03;0.03;;;;;;;;;;5036761;28;20760;-70
2021/12/08 08:07:05;;;;;;;0.50;0.27;;;;;;;;;;5037494;28;20694;-70
2021/12/08 08:09:36;;;;;;;0.30;0.20;;;;;;;;;;5037446;28;20206;-71
2021/12/08 08:12:07;;;;;;;0.57;0.20;;;;;;;;;;5035643;28;20686;-70
2021/12/08 08:14:39;;;;;;;0.60;0.00;;;;;;;;;;5037199;28;20740;-71
2021/12/08 08:17:07;;;;;;;0.87;0.30;;;;;;;;;;5036423;28;20201;-70
2021/12/08 08:19:42;;;;;;;0.37;0.27;;;;;;;;;;5037713;28;20236;-71
2021/12/08 08:22:11;;;;;;;0.60;0.30;;;;;;;;;;5035718;28;20236;-70
2021/12/08 08:24:38;;;;;;;1.80;0.80;;;;;;;;;;5037864;28;20715;-70
2021/12/08 08:27:09;;;;;;;1.60;0.60;;;;;;;;;;5035137;28;20204;-71
2021/12/08 08:29:36;;;;;;;1.17;1.17;;;;;;;;;;5037190;28;20227;-69
2021/12/08 08:32:05;;;;;;;0.20;0.20;;;;;;;;;;5034623;28;20207;-70
2021/12/08 08:34:38;;;;;;;0.17;0.17;;;;;;;;;;5034175;28;20753;-71
2021/12/08 08:37:07;;;;;;;0.37;0.10;;;;;;;;;;5035169;28;20507;-70
2021/12/08 08:39:36;;;;;;;0.43;0.43;;;;;;;;;;5034400;28;20204;-70
2021/12/08 08:42:08;;;;;;;0.40;0.40;;;;;;;;;;5037602;28;20239;-70
2021/12/08 08:44:39;;;;;;;0.00;0.00;;;;;;;;;;5033229;28;20823;-70
2021/12/08 08:47:08;;;;;;;0.63;0.63;;;;;;;;;;5029560;28;20230;-71
2021/12/08 08:49:37;;;;;;;0.30;0.20;;;;;;;;;;5030876;28;20249;-71
2021/12/08 08:52:06;;;;;;;0.20;0.20;;;;;;;;;;5029122;28;20199;-71
2021/12/08 08:54:35;;;;;;;0.00;0.00;;;;;;;;;;5035478;28;20231;-71
2021/12/08 08:57:07;;;;;;;0.30;0.30;;;;;;;;;;5034862;28;20462;-71
2021/12/08 08:59:40;;;;;;;1.13;0.67;;;;;;;;;;5032647;28;20196;-71
2021/12/08 09:02:09;;;;;;;0.63;0.47;;;;;;;;;;5030208;28;20224;-71
2021/12/08 09:04:38;;;;;;;5.60;1.13;;;;;;;;;;5036772;28;20257;-71
2021/12/08 09:07:07;;;;;;;0.47;0.30;;;;;;;;;;5038147;28;20292;-71
2021/12/08 09:09:36;;;;;;;0.07;0.07;;;;;;;;;;5035316;28;20208;-70
2021/12/08 09:12:06;;;;;;;0.00;0.00;;;;;;;;;;5035674;28;20564;-71
2021/12/08 09:14:36;;;;;;;0.90;0.90;;;;;;;;;;5035314;28;20214;-71
2021/12/08 09:17:06;;;;;;;1.23;0.60;;;;;;;;;;5035369;28;20298;-71
2021/12/08 09:19:40;;;;;;;0.33;0.23;;;;;;;;;;5036150;28;20207;-72
2021/12/08 09:22:11;;;;;;;0.10;0.10;;;;;;;;;;5036708;28;20237;-72
2021/12/08 09:24:45;;;;;;;0.03;0.03;;;;;;;;;;5035615;28;20223;-71
2021/12/08 09:27:13;;;;;;;0.20;0.20;;;;;;;;;;5035973;28;20666;-72
2021/12/08 09:29:45;;;;;;;0.10;0.10;;;;;;;;;;5035820;28;20672;-71
2021/12/08 09:32:16;;;;;;;0.30;0.30;;;;;;;;;;5032346;28;20687;-71
2021/12/08 09:34:54;;;;;;;0.10;0.10;;;;;;;;;;5035418;28;20656;-71
2021/12/08 09:37:22;;;;;;;0.97;0.40;;;;;;;;;;5034776;28;20307;-73
2021/12/08 09:39:51;;;;;;;0.40;0.40;;;;;;;;;;5037400;28;20223;-71
2021/12/08 09:42:20;;;;;;;0.00;0.00;;;;;;;;;;5038504;28;20231;-70
2021/12/08 09:44:49;;;;;;;1.50;0.40;;;;;;;;;;5036067;28;20231;-71
2021/12/08 09:47:16;;;;;;;1.57;0.50;;;;;;;;;;5031206;28;20199;-71
2021/12/08 09:49:47;;;;;;;1.10;0.80;;;;;;;;;;5030982;28;20603;-72
2021/12/08 09:52:16;;;;;;;0.03;0.03;;;;;;;;;;5034457;28;20299;-71
2021/12/08 09:54:44;;;;;;;2.20;0.40;;;;;;;;;;5032339;28;20257;-71
2021/12/08 09:57:25;;;;;;;3.40;1.07;;;;;;;;;;5054543;28;20571;-72
2021/12/08 09:59:53;;;;;;;1.43;0.80;;;;;;;;;;5044661;28;20686;-72
2021/12/08 10:02:27;;;;;;;0.03;0.03;;;;;;;;;;5033154;28;20247;-71
2021/12/08 10:04:58;;;;;;;1.00;0.20;;;;;;;;;;5029355;28;20332;-71
2021/12/08 10:07:26;;;;;;;0.43;0.30;;;;;;;;;;5038283;28;20810;-68
2021/12/08 10:09:57;;;;;;;0.17;0.17;;;;;;;;;;5060066;28;20202;-72
2021/12/08 10:12:25;;;;;;;0.30;0.30;;;;;;;;;;5047389;28;20233;-72
2021/12/08 10:14:52;;;;;;;0.93;0.70;;;;;;;;;;5035756;28;20381;-73
2021/12/08 10:17:21;;;;;;;5.40;0.67;;;;;;;;;;5036008;28;20575;-71
2021/12/08 10:20:06;;;;;;;1.40;0.87;;;;;;;;;;5054244;28;20656;-72
2021/12/08 10:22:35;;;;;;;0.20;0.20;;;;;;;;;;5031147;28;20234;-72
2021/12/08 10:25:04;;;;;;;2.83;0.80;;;;;;;;;;5032554;28;20761;-72
2021/12/08 10:27:32;;;;;;;0.50;0.43;;;;;;;;;;5036075;28;20205;-72
2021/12/08 10:30:14;;;;;;;0.50;0.50;;;;;;;;;;5037993;28;20294;-72
2021/12/08 10:32:41;;;;;;;0.83;0.63;;;;;;;;;;5030876;28;20203;-70
2021/12/08 10:35:38;;;;;;;1.90;0.63;;;;;;;;;;5026789;28;20219;-70
2021/12/08 10:38:07;;;;;;;0.60;0.60;;;;;;;;;;5034799;28;20195;-70
2021/12/08 10:40:34;;;;;;;0.00;0.00;;;;;;;;;;5026538;28;20228;-69
2021/12/08 10:43:14;;;;;;;0.10;0.10;;;;;;;;;;5031887;28;20630;-69
2021/12/08 10:45:41;;;;;;;0.50;0.50;;;;;;;;;;5031278;28;20203;-69
2021/12/08 10:48:10;;;;;;;0.80;0.60;;;;;;;;;;5036737;28;20196;-71
2021/12/08 10:56:13;;;;;;;0.30;0.30;;;;;;;;;;5001579;28;20283;-72
2021/12/08 10:58:46;;;;;;;0.40;0.40;;;;;;;;;;4999132;28;20213;-73
2021/12/08 11:01:16;;;;;;;1.77;0.97;;;;;;;;;;5000019;28;20209;-71
2021/12/08 11:03:43;;;;;;;1.87;0.83;;;;;;;;;;5000328;28;20267;-67
2021/12/08 11:06:15;;;;;;;1.03;1.00;;;;;;;;;;5000057;28;20212;-71
2021/12/08 11:08:45;;;;;;;0.40;0.40;;;;;;;;;;4995269;28;20201;-69
2021/12/08 11:11:20;;;;;;;0.57;0.47;;;;;;;;;;4993676;28;20294;-72
2021/12/08 11:13:48;;;;;;;0.00;0.00;;;;;;;;;;4994316;28;22055;-71
2021/12/08 11:16:17;;;;;;;2.00;0.93;;;;;;;;;;4994458;28;20192;-71
2021/12/08 11:18:46;;;;;;;0.00;0.00;;;;;;;;;;4994165;28;20220;-71
2021/12/08 11:21:19;;;;;;;1.60;1.17;;;;;;;;;;4995120;28;20618;-72
2021/12/08 11:23:50;;;;;;;1.40;0.30;;;;;;;;;;4993146;28;20238;-72
2021/12/08 11:26:19;;;;;;;0.57;0.57;;;;;;;;;;4994755;28;20529;-72
2021/12/08 11:28:52;;;;;;;2.53;0.77;;;;;;;;;;4997400;28;20212;-69
2021/12/08 11:31:21;;;;;;;3.77;0.53;;;;;;;;;;4994815;28;20247;-71
2021/12/08 11:33:59;;;;;;;0.30;0.30;;;;;;;;;;4994309;28;20291;-72
2021/12/08 11:36:27;;;;;;;0.40;0.40;;;;;;;;;;4994538;28;20673;-73
2021/12/08 11:38:56;;;;;;;0.30;0.20;;;;;;;;;;4993811;28;20281;-73
2021/12/08 11:41:26;;;;;;;0.70;0.50;;;;;;;;;;4996550;28;21625;-73
2021/12/08 11:43:55;;;;;;;0.30;0.27;;;;;;;;;;4994335;28;20225;-73
2021/12/08 11:46:23;;;;;;;1.13;0.50;;;;;;;;;;4996976;28;20205;-73
2021/12/08 11:48:56;;;;;;;0.73;0.20;;;;;;;;;;4994584;28;20223;-73
2021/12/08 11:51:25;;;;;;;0.30;0.30;;;;;;;;;;4996264;28;20201;-73
2021/12/08 11:53:52;;;;;;;0.97;0.43;;;;;;;;;;4999921;28;20235;-72
2021/12/08 11:56:41;;;;;;;1.00;0.90;;;;;;;;;;5029964;28;20212;-73
2021/12/08 11:59:10;;;;;;;1.83;1.27;;;;;;;;;;5031195;28;20211;-74
2021/12/08 12:01:38;;;;;;;0.90;0.90;;;;;;;;;;5029185;28;20839;-76
2021/12/08 12:04:06;;;;;;;0.40;0.40;;;;;;;;;;5026020;28;20234;-72
2021/12/08 12:06:34;;;;;;;0.97;0.97;;;;;;;;;;5032226;28;20196;-76
2021/12/08 12:09:02;;;;;;;1.93;0.63;;;;;;;;;;5028143;28;20648;-79
2021/12/08 12:11:31;;;;;;;0.30;0.10;;;;;;;;;;5028454;28;20204;-78
2021/12/08 12:14:00;;;;;;;0.67;0.20;;;;;;;;;;5032572;28;20200;-72
2021/12/08 12:16:29;;;;;;;0.30;0.30;;;;;;;;;;5041770;28;20223;-74
2021/12/08 12:18:59;;;;;;;0.50;0.33;;;;;;;;;;5041705;28;20207;-70
2021/12/08 12:21:33;;;;;;;0.17;0.10;;;;;;;;;;5043077;28;20241;-71
2021/12/08 12:24:11;;;;;;;0.20;0.20;;;;;;;;;;5037635;28;20317;-73
2021/12/08 12:26:44;;;;;;;0.00;0.00;;;;;;;;;;5034045;28;22343;-73
2021/12/08 12:29:19;;;;;;;0.70;0.40;;;;;;;;;;5029774;28;20261;-73
2021/12/08 12:31:51;;;;;;;0.80;0.80;;;;;;;;;;5031529;28;20203;-73
2021/12/08 12:34:25;;;;;;;0.47;0.43;;;;;;;;;;5030114;28;20196;-75
2021/12/08 12:36:53;;;;;;;0.90;0.90;;;;;;;;;;5034032;28;20202;-73
2021/12/08 12:39:23;;;;;;;0.57;0.37;;;;;;;;;;5031443;28;20215;-72
2021/12/08 12:41:58;;;;;;;0.07;0.07;;;;;;;;;;5033306;28;20203;-74
2021/12/08 12:44:29;;;;;;;0.20;0.20;;;;;;;;;;5033925;28;21039;-70
2021/12/08 12:47:15;;;;;;;1.20;0.97;;;;;;;;;;5027329;28;20209;-72
2021/12/08 12:49:44;;;;;;;0.00;0.00;;;;;;;;;;5029197;28;20233;-73
2021/12/08 12:52:12;;;;;;;0.20;0.20;;;;;;;;;;5024638;28;20208;-70
2021/12/08 12:54:39;;;;;;;1.57;0.60;;;;;;;;;;5032311;28;20243;-74
2021/12/08 12:57:07;;;;;;;0.53;0.40;;;;;;;;;;5032446;28;20276;-75
2021/12/08 12:59:41;;;;;;;0.10;0.00;;;;;;;;;;5028526;28;20301;-76
2021/12/08 13:02:11;;;;;;;1.10;0.50;;;;;;;;;;5026622;28;20215;-70
2021/12/08 13:04:51;;;;;;;1.80;0.57;;;;;;;;;;5030255;28;20298;-71
2021/12/08 13:07:19;;;;;;;0.13;0.13;;;;;;;;;;5033273;28;20199;-74
2021/12/08 13:09:48;;;;;;;0.33;0.33;;;;;;;;;;5033733;28;20199;-71
2021/12/08 13:12:16;;;;;;;0.97;0.50;;;;;;;;;;5033919;28;20212;-75
2021/12/08 13:14:46;;;;;;;0.30;0.30;;;;;;;;;;5025096;28;20214;-70
2021/12/08 13:17:15;;;;;;;0.60;0.60;;;;;;;;;;5033715;28;20214;-71
2021/12/08 13:19:44;;;;;;;0.40;0.40;;;;;;;;;;5031022;28;20208;-72
2021/12/08 13:22:31;;;;;;;0.73;0.67;;;;;;;;;;5033955;28;20187;-73
2021/12/08 13:25:02;;;;;;;1.30;0.83;;;;;;;;;;5030030;28;20322;-70
2021/12/08 13:27:30;;;;;;;0.60;0.60;;;;;;;;;;5029641;28;20211;-69
2021/12/08 13:30:10;;;;;;;0.90;0.90;;;;;;;;;;5030811;28;20223;-72
2021/12/08 13:32:45;;;;;;;0.10;0.10;;;;;;;;;;5031122;28;20706;-75
2021/12/08 13:35:12;;;;;;;0.20;0.20;;;;;;;;;;5031974;28;20297;-73
2021/12/08 13:37:56;;;;;;;0.80;0.80;;;;;;;;;;5033029;28;20199;-72
2021/12/08 13:40:41;;;;;;;0.40;0.40;;;;;;;;;;5030526;28;20206;-73
2021/12/08 13:43:09;;;;;;;0.77;0.53;;;;;;;;;;5029892;28;20335;-71
2021/12/08 13:45:44;;;;;;;0.60;0.60;;;;;;;;;;5033824;28;20216;-74
2021/12/08 13:48:11;;;;;;;0.43;0.40;;;;;;;;;;5030241;28;20214;-74
2021/12/08 13:50:39;;;;;;;0.27;0.27;;;;;;;;;;5033220;28;20205;-75
2021/12/08 13:53:10;;;;;;;1.20;0.20;;;;;;;;;;5032117;28;20220;-73
2021/12/08 13:55:40;;;;;;;0.20;0.20;;;;;;;;;;5032636;28;20234;-74
2021/12/08 13:58:12;;;;;;;0.50;0.50;;;;;;;;;;5034142;28;20211;-74
2021/12/08 14:00:42;;;;;;;0.50;0.47;;;;;;;;;;5032941;28;20206;-75
2021/12/08 14:03:16;;;;;;;0.87;0.87;;;;;;;;;;5031376;28;20231;-74
2021/12/08 14:05:46;;;;;;;0.53;0.53;;;;;;;;;;5030141;28;20224;-75
2021/12/08 14:08:21;;;;;;;0.37;0.37;;;;;;;;;;5032773;28;20952;-75
2021/12/08 14:10:51;;;;;;;0.80;0.80;;;;;;;;;;5031348;28;20218;-74
2021/12/08 14:13:19;;;;;;;0.53;0.53;;;;;;;;;;5031945;28;20216;-74
2021/12/08 14:15:47;;;;;;;0.00;0.00;;;;;;;;;;5034011;28;20207;-74
2021/12/08 14:18:21;;;;;;;0.50;0.50;;;;;;;;;;5030004;28;20668;-73
2021/12/08 14:20:49;;;;;;;0.90;0.90;;;;;;;;;;5032458;28;22439;-74
2021/12/08 14:23:17;;;;;;;0.57;0.57;;;;;;;;;;5032545;28;20230;-73
2021/12/08 14:25:46;;;;;;;0.00;0.00;;;;;;;;;;5030765;28;20214;-74
2021/12/08 14:28:39;;;;;;;0.10;0.10;;;;;;;;;;5031130;28;20204;-72
2021/12/08 14:31:08;;;;;;;0.37;0.37;;;;;;;;;;5031914;28;20216;-72
2021/12/08 14:33:37;;;;;;;0.10;0.10;;;;;;;;;;5032389;28;20684;-76
2021/12/08 14:36:06;;;;;;;0.00;0.00;;;;;;;;;;5030418;28;20206;-75
2021/12/08 14:38:37;;;;;;;0.17;0.17;;;;;;;;;;5028882;28;20212;-74
2021/12/08 14:41:18;;;;;;;1.20;0.97;;;;;;;;;;5030683;28;20635;-77
2021/12/08 14:43:48;;;;;;;1.20;0.83;;;;;;;;;;5030022;28;20242;-76
2021/12/08 14:46:18;;;;;;;0.30;0.30;;;;;;;;;;5029877;28;20277;-75
2021/12/08 14:48:56;;;;;;;0.23;0.23;;;;;;;;;;5031762;28;20329;-78
2021/12/08 14:51:25;;;;;;;0.30;0.30;;;;;;;;;;5030564;28;20208;-76
2021/12/08 14:53:53;;;;;;;0.03;0.03;;;;;;;;;;5035120;28;20715;-72
2021/12/08 14:56:21;;;;;;;0.30;0.27;;;;;;;;;;5035673;28;20206;-73
2021/12/08 14:58:56;;;;;;;0.20;0.20;;;;;;;;;;5027818;28;20229;-73
2021/12/08 15:01:23;;;;;;;0.27;0.27;;;;;;;;;;5033257;28;20214;-72
2021/12/08 15:03:51;;;;;;;0.00;0.00;;;;;;;;;;5027442;28;20230;-72
2021/12/08 15:06:21;;;;;;;0.40;0.40;;;;;;;;;;5030092;28;20319;-74
2021/12/08 15:08:49;;;;;;;0.23;0.23;;;;;;;;;;5030915;28;20575;-73
2021/12/08 15:11:20;;;;;;;1.97;0.53;;;;;;;;;;5029572;28;20219;-74
2021/12/08 15:13:48;;;;;;;0.40;0.40;;;;;;;;;;5030928;28;20204;-76
2021/12/08 15:16:18;;;;;;;0.43;0.43;;;;;;;;;;5031449;28;20200;-70
2021/12/08 15:18:47;;;;;;;3.13;0.60;;;;;;;;;;5030618;28;20298;-68
2021/12/08 15:21:24;;;;;;;0.10;0.10;;;;;;;;;;5031592;28;20414;-74
2021/12/08 15:24:01;;;;;;;0.00;0.00;;;;;;;;;;5030982;28;20235;-74
2021/12/08 15:26:29;;;;;;;0.00;0.00;;;;;;;;;;5031400;28;20745;-71
2021/12/08 15:28:57;;;;;;;0.00;0.00;;;;;;;;;;5027212;28;20207;-75
2021/12/08 15:31:47;;;;;;;0.00;0.00;;;;;;;;;;5054652;28;20299;-73
2021/12/08 15:34:18;;;;;;;0.10;0.10;;;;;;;;;;5050460;28;20215;-73